sensor_id;sensor_type;location;lat;lon;timestamp;P1;durP1;ratioP1;P2;durP2;ratioP2
10586;SDS011;5341;47.606;7.576;2022-09-03T00:01:46;3.28;;;2.50;;
10586;SDS011;5341;47.606;7.576;2022-09-03T00:04:19;3.20;;;2.35;;
10586;SDS011;5341;47.606;7.576;2022-09-03T00:06:54;3.80;;;2.53;;
10586;SDS011;5341;47.606;7.576;2022-09-03T00:09:30;2.92;;;2.63;;
10586;SDS011;5341;47.606;7.576;2022-09-03T00:12:08;2.70;;;2.50;;
10586;SDS011;5341;47.606;7.576;2022-09-03T00:14:40;3.50;;;2.70;;
10586;SDS011;5341;47.606;7.576;2022-09-03T00:17:14;3.88;;;2.30;;
10586;SDS011;5341;47.606;7.576;2022-09-03T00:19:47;3.03;;;2.70;;
10586;SDS011;5341;47.606;7.576;2022-09-03T00:22:22;3.15;;;2.85;;
10586;SDS011;5341;47.606;7.576;2022-09-03T00:24:53;3.40;;;2.55;;
10586;SDS011;5341;47.606;7.576;2022-09-03T00:27:27;2.92;;;2.65;;
10586;SDS011;5341;47.606;7.576;2022-09-03T00:29:58;4.32;;;2.72;;
10586;SDS011;5341;47.606;7.576;2022-09-03T00:32:33;3.65;;;2.55;;
10586;SDS011;5341;47.606;7.576;2022-09-03T00:35:07;3.55;;;2.38;;
10586;SDS011;5341;47.606;7.576;2022-09-03T00:37:41;3.17;;;2.88;;
10586;SDS011;5341;47.606;7.576;2022-09-03T00:40:12;3.05;;;2.70;;
10586;SDS011;5341;47.606;7.576;2022-09-03T00:42:53;3.83;;;3.00;;
10586;SDS011;5341;47.606;7.576;2022-09-03T00:45:30;3.30;;;3.00;;
10586;SDS011;5341;47.606;7.576;2022-09-03T00:48:09;3.95;;;3.10;;
10586;SDS011;5341;47.606;7.576;2022-09-03T00:50:46;4.47;;;3.08;;
10586;SDS011;5341;47.606;7.576;2022-09-03T00:53:32;5.60;;;2.90;;
10586;SDS011;5341;47.606;7.576;2022-09-03T00:56:06;4.57;;;2.90;;
10586;SDS011;5341;47.606;7.576;2022-09-03T00:58:51;3.10;;;2.78;;
10586;SDS011;5341;47.606;7.576;2022-09-03T01:01:30;3.38;;;3.00;;
10586;SDS011;5341;47.606;7.576;2022-09-03T01:04:20;3.60;;;3.22;;
10586;SDS011;5341;47.606;7.576;2022-09-03T01:06:57;3.17;;;2.88;;
10586;SDS011;5341;47.606;7.576;2022-09-03T01:09:38;4.20;;;3.35;;
10586;SDS011;5341;47.606;7.576;2022-09-03T01:12:17;3.22;;;2.78;;
10586;SDS011;5341;47.606;7.576;2022-09-03T01:15:00;4.75;;;3.13;;
10586;SDS011;5341;47.606;7.576;2022-09-03T01:17:47;4.03;;;2.67;;
10586;SDS011;5341;47.606;7.576;2022-09-03T01:20:33;3.20;;;2.67;;
10586;SDS011;5341;47.606;7.576;2022-09-03T01:23:20;7.32;;;2.60;;
10586;SDS011;5341;47.606;7.576;2022-09-03T01:29:07;3.17;;;2.70;;
10586;SDS011;5341;47.606;7.576;2022-09-03T01:31:45;3.55;;;2.85;;
10586;SDS011;5341;47.606;7.576;2022-09-03T01:34:24;3.00;;;2.70;;
10586;SDS011;5341;47.606;7.576;2022-09-03T01:37:06;2.50;;;2.30;;
10586;SDS011;5341;47.606;7.576;2022-09-03T01:39:43;2.72;;;2.25;;
10586;SDS011;5341;47.606;7.576;2022-09-03T01:42:20;3.67;;;2.40;;
10586;SDS011;5341;47.606;7.576;2022-09-03T01:45:02;3.88;;;2.53;;
10586;SDS011;5341;47.606;7.576;2022-09-03T01:47:48;3.42;;;2.15;;
10586;SDS011;5341;47.606;7.576;2022-09-03T01:50:30;2.55;;;2.33;;
10586;SDS011;5341;47.606;7.576;2022-09-03T01:53:06;3.40;;;2.47;;
10586;SDS011;5341;47.606;7.576;2022-09-03T01:55:48;3.58;;;2.75;;
10586;SDS011;5341;47.606;7.576;2022-09-03T01:58:32;4.53;;;2.75;;
10586;SDS011;5341;47.606;7.576;2022-09-03T02:01:11;4.65;;;2.70;;
10586;SDS011;5341;47.606;7.576;2022-09-03T02:03:43;2.80;;;2.60;;
10586;SDS011;5341;47.606;7.576;2022-09-03T02:06:12;2.47;;;2.28;;
10586;SDS011;5341;47.606;7.576;2022-09-03T02:08:41;3.33;;;2.70;;
10586;SDS011;5341;47.606;7.576;2022-09-03T02:11:09;4.05;;;2.22;;
10586;SDS011;5341;47.606;7.576;2022-09-03T02:13:37;4.88;;;2.72;;
10586;SDS011;5341;47.606;7.576;2022-09-03T02:16:10;2.92;;;2.70;;
10586;SDS011;5341;47.606;7.576;2022-09-03T02:18:40;3.10;;;2.53;;
10586;SDS011;5341;47.606;7.576;2022-09-03T02:21:11;2.65;;;2.45;;
10586;SDS011;5341;47.606;7.576;2022-09-03T02:23:42;3.63;;;2.70;;
10586;SDS011;5341;47.606;7.576;2022-09-03T02:26:10;3.80;;;2.40;;
10586;SDS011;5341;47.606;7.576;2022-09-03T02:28:42;3.78;;;2.70;;
10586;SDS011;5341;47.606;7.576;2022-09-03T02:31:15;4.38;;;2.88;;
10586;SDS011;5341;47.606;7.576;2022-09-03T02:33:43;3.33;;;2.60;;
10586;SDS011;5341;47.606;7.576;2022-09-03T02:36:14;3.17;;;2.75;;
10586;SDS011;5341;47.606;7.576;2022-09-03T02:38:45;2.78;;;2.28;;
10586;SDS011;5341;47.606;7.576;2022-09-03T02:41:13;2.85;;;2.55;;
10586;SDS011;5341;47.606;7.576;2022-09-03T02:43:44;2.72;;;2.53;;
10586;SDS011;5341;47.606;7.576;2022-09-03T02:46:19;2.72;;;2.53;;
10586;SDS011;5341;47.606;7.576;2022-09-03T02:48:52;3.08;;;2.65;;
10586;SDS011;5341;47.606;7.576;2022-09-03T02:51:19;3.42;;;2.50;;
10586;SDS011;5341;47.606;7.576;2022-09-03T02:53:47;3.10;;;2.33;;
10586;SDS011;5341;47.606;7.576;2022-09-03T02:56:15;2.83;;;2.53;;
10586;SDS011;5341;47.606;7.576;2022-09-03T02:58:42;3.05;;;2.60;;
10586;SDS011;5341;47.606;7.576;2022-09-03T03:01:12;2.80;;;2.60;;
10586;SDS011;5341;47.606;7.576;2022-09-03T03:03:41;3.40;;;2.83;;
10586;SDS011;5341;47.606;7.576;2022-09-03T03:06:09;3.00;;;2.80;;
10586;SDS011;5341;47.606;7.576;2022-09-03T03:08:38;3.38;;;2.40;;
10586;SDS011;5341;47.606;7.576;2022-09-03T03:11:06;3.35;;;2.58;;
10586;SDS011;5341;47.606;7.576;2022-09-03T03:13:34;5.20;;;2.90;;
10586;SDS011;5341;47.606;7.576;2022-09-03T03:16:02;3.60;;;3.03;;
10586;SDS011;5341;47.606;7.576;2022-09-03T03:18:32;4.00;;;3.03;;
10586;SDS011;5341;47.606;7.576;2022-09-03T03:21:04;3.10;;;2.80;;
10586;SDS011;5341;47.606;7.576;2022-09-03T03:23:33;3.13;;;2.83;;
10586;SDS011;5341;47.606;7.576;2022-09-03T03:26:02;2.75;;;2.55;;
10586;SDS011;5341;47.606;7.576;2022-09-03T03:28:31;3.58;;;2.65;;
10586;SDS011;5341;47.606;7.576;2022-09-03T03:31:04;6.05;;;2.75;;
10586;SDS011;5341;47.606;7.576;2022-09-03T03:33:32;4.57;;;2.60;;
10586;SDS011;5341;47.606;7.576;2022-09-03T03:36:04;7.15;;;2.65;;
10586;SDS011;5341;47.606;7.576;2022-09-03T03:38:32;3.78;;;2.83;;
10586;SDS011;5341;47.606;7.576;2022-09-03T03:41:05;3.92;;;2.72;;
10586;SDS011;5341;47.606;7.576;2022-09-03T03:43:33;3.85;;;2.58;;
10586;SDS011;5341;47.606;7.576;2022-09-03T03:46:01;3.22;;;2.60;;
10586;SDS011;5341;47.606;7.576;2022-09-03T03:48:29;3.13;;;2.83;;
10586;SDS011;5341;47.606;7.576;2022-09-03T03:50:59;4.45;;;3.40;;
10586;SDS011;5341;47.606;7.576;2022-09-03T03:53:30;3.55;;;3.22;;
10586;SDS011;5341;47.606;7.576;2022-09-03T03:55:58;4.00;;;2.90;;
10586;SDS011;5341;47.606;7.576;2022-09-03T03:58:27;3.08;;;2.83;;
10586;SDS011;5341;47.606;7.576;2022-09-03T04:01:03;4.15;;;3.03;;
10586;SDS011;5341;47.606;7.576;2022-09-03T04:03:31;3.22;;;2.92;;
10586;SDS011;5341;47.606;7.576;2022-09-03T04:05:59;5.10;;;3.00;;
10586;SDS011;5341;47.606;7.576;2022-09-03T04:08:32;5.03;;;3.20;;
10586;SDS011;5341;47.606;7.576;2022-09-03T04:11:01;3.35;;;3.05;;
10586;SDS011;5341;47.606;7.576;2022-09-03T04:13:30;3.15;;;2.85;;
10586;SDS011;5341;47.606;7.576;2022-09-03T04:16:01;3.65;;;2.83;;
10586;SDS011;5341;47.606;7.576;2022-09-03T04:18:29;3.40;;;3.10;;
10586;SDS011;5341;47.606;7.576;2022-09-03T04:20:58;3.63;;;3.20;;
10586;SDS011;5341;47.606;7.576;2022-09-03T04:23:30;5.30;;;3.25;;
10586;SDS011;5341;47.606;7.576;2022-09-03T04:25:58;3.38;;;3.13;;
10586;SDS011;5341;47.606;7.576;2022-09-03T04:28:26;3.97;;;3.00;;
10586;SDS011;5341;47.606;7.576;2022-09-03T04:30:59;3.60;;;3.30;;
10586;SDS011;5341;47.606;7.576;2022-09-03T04:33:27;3.63;;;2.72;;
10586;SDS011;5341;47.606;7.576;2022-09-03T04:36:01;3.72;;;3.30;;
10586;SDS011;5341;47.606;7.576;2022-09-03T04:38:31;4.80;;;2.95;;
10586;SDS011;5341;47.606;7.576;2022-09-03T04:40:59;4.13;;;2.90;;
10586;SDS011;5341;47.606;7.576;2022-09-03T04:43:28;3.60;;;3.10;;
10586;SDS011;5341;47.606;7.576;2022-09-03T04:45:56;6.22;;;3.10;;
10586;SDS011;5341;47.606;7.576;2022-09-03T04:48:25;3.63;;;2.83;;
10586;SDS011;5341;47.606;7.576;2022-09-03T04:50:53;3.28;;;2.92;;
10586;SDS011;5341;47.606;7.576;2022-09-03T04:53:21;4.35;;;2.70;;
10586;SDS011;5341;47.606;7.576;2022-09-03T04:55:50;3.53;;;3.10;;
10586;SDS011;5341;47.606;7.576;2022-09-03T04:58:18;3.28;;;2.97;;
10586;SDS011;5341;47.606;7.576;2022-09-03T05:00:46;3.47;;;2.67;;
10586;SDS011;5341;47.606;7.576;2022-09-03T05:03:13;3.25;;;2.95;;
10586;SDS011;5341;47.606;7.576;2022-09-03T05:05:42;3.15;;;2.85;;
10586;SDS011;5341;47.606;7.576;2022-09-03T05:08:17;3.25;;;2.95;;
10586;SDS011;5341;47.606;7.576;2022-09-03T05:10:45;2.88;;;2.67;;
10586;SDS011;5341;47.606;7.576;2022-09-03T05:13:14;6.95;;;3.03;;
10586;SDS011;5341;47.606;7.576;2022-09-03T05:15:42;3.47;;;2.90;;
10586;SDS011;5341;47.606;7.576;2022-09-03T05:18:10;5.45;;;3.00;;
10586;SDS011;5341;47.606;7.576;2022-09-03T05:20:38;4.63;;;2.80;;
10586;SDS011;5341;47.606;7.576;2022-09-03T05:23:05;3.25;;;2.88;;
10586;SDS011;5341;47.606;7.576;2022-09-03T05:25:33;2.83;;;2.50;;
10586;SDS011;5341;47.606;7.576;2022-09-03T05:28:02;2.90;;;2.60;;
10586;SDS011;5341;47.606;7.576;2022-09-03T05:30:31;3.80;;;2.78;;
10586;SDS011;5341;47.606;7.576;2022-09-03T05:32:59;2.80;;;2.60;;
10586;SDS011;5341;47.606;7.576;2022-09-03T05:35:26;3.00;;;2.60;;
10586;SDS011;5341;47.606;7.576;2022-09-03T05:37:54;3.90;;;2.83;;
10586;SDS011;5341;47.606;7.576;2022-09-03T05:40:21;3.47;;;2.75;;
10586;SDS011;5341;47.606;7.576;2022-09-03T05:42:53;3.75;;;3.10;;
10586;SDS011;5341;47.606;7.576;2022-09-03T05:45:23;3.92;;;3.05;;
10586;SDS011;5341;47.606;7.576;2022-09-03T05:47:54;3.15;;;2.85;;
10586;SDS011;5341;47.606;7.576;2022-09-03T05:50:25;3.33;;;3.03;;
10586;SDS011;5341;47.606;7.576;2022-09-03T05:52:53;4.90;;;3.13;;
10586;SDS011;5341;47.606;7.576;2022-09-03T05:55:20;3.42;;;3.10;;
10586;SDS011;5341;47.606;7.576;2022-09-03T05:57:50;3.10;;;2.80;;
10586;SDS011;5341;47.606;7.576;2022-09-03T06:00:18;3.38;;;3.08;;
10586;SDS011;5341;47.606;7.576;2022-09-03T06:02:48;2.90;;;2.60;;
10586;SDS011;5341;47.606;7.576;2022-09-03T06:05:18;5.15;;;2.95;;
10586;SDS011;5341;47.606;7.576;2022-09-03T06:07:47;3.13;;;2.83;;
10586;SDS011;5341;47.606;7.576;2022-09-03T06:10:16;3.33;;;2.85;;
10586;SDS011;5341;47.606;7.576;2022-09-03T06:12:43;3.45;;;3.08;;
10586;SDS011;5341;47.606;7.576;2022-09-03T06:15:14;3.22;;;2.92;;
10586;SDS011;5341;47.606;7.576;2022-09-03T06:17:44;3.00;;;2.70;;
10586;SDS011;5341;47.606;7.576;2022-09-03T06:20:13;3.60;;;3.20;;
10586;SDS011;5341;47.606;7.576;2022-09-03T06:22:42;3.22;;;2.90;;
10586;SDS011;5341;47.606;7.576;2022-09-03T06:25:18;3.33;;;3.00;;
10586;SDS011;5341;47.606;7.576;2022-09-03T06:27:45;5.13;;;2.90;;
10586;SDS011;5341;47.606;7.576;2022-09-03T06:30:14;3.78;;;2.92;;
10586;SDS011;5341;47.606;7.576;2022-09-03T06:32:43;3.03;;;2.72;;
10586;SDS011;5341;47.606;7.576;2022-09-03T06:35:10;4.90;;;3.35;;
10586;SDS011;5341;47.606;7.576;2022-09-03T06:37:39;4.60;;;3.28;;
10586;SDS011;5341;47.606;7.576;2022-09-03T06:40:10;4.10;;;2.83;;
10586;SDS011;5341;47.606;7.576;2022-09-03T06:42:38;4.00;;;2.80;;
10586;SDS011;5341;47.606;7.576;2022-09-03T06:45:07;3.17;;;2.88;;
10586;SDS011;5341;47.606;7.576;2022-09-03T06:47:36;3.45;;;2.75;;
10586;SDS011;5341;47.606;7.576;2022-09-03T06:50:05;2.80;;;2.60;;
10586;SDS011;5341;47.606;7.576;2022-09-03T06:52:34;3.15;;;2.85;;
10586;SDS011;5341;47.606;7.576;2022-09-03T06:55:02;2.60;;;2.40;;
10586;SDS011;5341;47.606;7.576;2022-09-03T06:57:32;3.42;;;2.75;;
10586;SDS011;5341;47.606;7.576;2022-09-03T06:59:59;3.25;;;2.20;;
10586;SDS011;5341;47.606;7.576;2022-09-03T07:02:29;2.60;;;2.22;;
10586;SDS011;5341;47.606;7.576;2022-09-03T07:04:56;4.28;;;2.15;;
10586;SDS011;5341;47.606;7.576;2022-09-03T07:07:24;3.55;;;2.15;;
10586;SDS011;5341;47.606;7.576;2022-09-03T07:09:52;2.45;;;2.25;;
10586;SDS011;5341;47.606;7.576;2022-09-03T07:12:21;2.58;;;2.28;;
10586;SDS011;5341;47.606;7.576;2022-09-03T07:14:50;2.92;;;2.60;;
10586;SDS011;5341;47.606;7.576;2022-09-03T07:17:18;3.45;;;2.47;;
10586;SDS011;5341;47.606;7.576;2022-09-03T07:19:45;2.80;;;2.40;;
10586;SDS011;5341;47.606;7.576;2022-09-03T07:22:14;2.67;;;2.08;;
10586;SDS011;5341;47.606;7.576;2022-09-03T07:24:42;2.63;;;2.35;;
10586;SDS011;5341;47.606;7.576;2022-09-03T07:27:12;2.58;;;2.22;;
10586;SDS011;5341;47.606;7.576;2022-09-03T07:29:39;2.75;;;2.25;;
10586;SDS011;5341;47.606;7.576;2022-09-03T07:32:09;4.95;;;2.20;;
10586;SDS011;5341;47.606;7.576;2022-09-03T07:34:36;3.15;;;2.20;;
10586;SDS011;5341;47.606;7.576;2022-09-03T07:37:04;4.57;;;2.47;;
10586;SDS011;5341;47.606;7.576;2022-09-03T07:39:32;2.78;;;2.30;;
10586;SDS011;5341;47.606;7.576;2022-09-03T07:42:00;2.53;;;2.25;;
10586;SDS011;5341;47.606;7.576;2022-09-03T07:44:28;2.58;;;2.30;;
10586;SDS011;5341;47.606;7.576;2022-09-03T07:46:56;2.80;;;2.50;;
10586;SDS011;5341;47.606;7.576;2022-09-03T07:49:26;2.38;;;2.17;;
10586;SDS011;5341;47.606;7.576;2022-09-03T07:51:54;3.38;;;2.70;;
10586;SDS011;5341;47.606;7.576;2022-09-03T07:54:21;3.20;;;2.20;;
10586;SDS011;5341;47.606;7.576;2022-09-03T07:56:52;2.55;;;2.35;;
10586;SDS011;5341;47.606;7.576;2022-09-03T07:59:20;2.55;;;2.20;;
10586;SDS011;5341;47.606;7.576;2022-09-03T08:01:48;2.33;;;2.13;;
10586;SDS011;5341;47.606;7.576;2022-09-03T08:04:17;3.10;;;2.60;;
10586;SDS011;5341;47.606;7.576;2022-09-03T08:06:48;2.60;;;2.25;;
10586;SDS011;5341;47.606;7.576;2022-09-03T08:09:20;3.08;;;2.55;;
10586;SDS011;5341;47.606;7.576;2022-09-03T08:11:51;3.20;;;2.33;;
10586;SDS011;5341;47.606;7.576;2022-09-03T08:14:18;3.22;;;2.20;;
10586;SDS011;5341;47.606;7.576;2022-09-03T08:16:46;2.30;;;2.10;;
10586;SDS011;5341;47.606;7.576;2022-09-03T08:19:14;3.13;;;2.25;;
10586;SDS011;5341;47.606;7.576;2022-09-03T08:21:43;3.35;;;2.30;;
10586;SDS011;5341;47.606;7.576;2022-09-03T08:24:13;2.53;;;2.15;;
10586;SDS011;5341;47.606;7.576;2022-09-03T08:26:42;2.22;;;2.03;;
10586;SDS011;5341;47.606;7.576;2022-09-03T08:29:10;2.40;;;2.13;;
10586;SDS011;5341;47.606;7.576;2022-09-03T08:31:37;2.47;;;2.20;;
10586;SDS011;5341;47.606;7.576;2022-09-03T08:34:06;2.92;;;2.33;;
10586;SDS011;5341;47.606;7.576;2022-09-03T08:36:36;2.45;;;2.10;;
10586;SDS011;5341;47.606;7.576;2022-09-03T08:39:08;2.40;;;2.20;;
10586;SDS011;5341;47.606;7.576;2022-09-03T08:41:44;3.35;;;2.35;;
10586;SDS011;5341;47.606;7.576;2022-09-03T08:44:26;3.17;;;2.40;;
10586;SDS011;5341;47.606;7.576;2022-09-03T08:46:57;3.28;;;2.33;;
10586;SDS011;5341;47.606;7.576;2022-09-03T08:49:30;4.28;;;3.10;;
10586;SDS011;5341;47.606;7.576;2022-09-03T08:52:05;5.47;;;3.58;;
10586;SDS011;5341;47.606;7.576;2022-09-03T08:54:44;4.40;;;3.30;;
10586;SDS011;5341;47.606;7.576;2022-09-03T08:57:17;4.38;;;3.58;;
10586;SDS011;5341;47.606;7.576;2022-09-03T08:59:46;4.95;;;3.17;;
10586;SDS011;5341;47.606;7.576;2022-09-03T09:02:20;6.78;;;3.22;;
10586;SDS011;5341;47.606;7.576;2022-09-03T09:04:56;3.40;;;3.10;;
10586;SDS011;5341;47.606;7.576;2022-09-03T09:07:31;5.00;;;3.30;;
10586;SDS011;5341;47.606;7.576;2022-09-03T09:10:11;5.18;;;2.95;;
10586;SDS011;5341;47.606;7.576;2022-09-03T09:12:50;3.30;;;2.72;;
10586;SDS011;5341;47.606;7.576;2022-09-03T09:15:33;4.32;;;2.95;;
10586;SDS011;5341;47.606;7.576;2022-09-03T09:18:09;4.57;;;2.58;;
10586;SDS011;5341;47.606;7.576;2022-09-03T09:20:47;2.45;;;2.25;;
10586;SDS011;5341;47.606;7.576;2022-09-03T09:23:19;3.72;;;2.42;;
10586;SDS011;5341;47.606;7.576;2022-09-03T09:25:54;2.90;;;2.30;;
10586;SDS011;5341;47.606;7.576;2022-09-03T09:28:28;3.53;;;2.50;;
10586;SDS011;5341;47.606;7.576;2022-09-03T09:31:00;2.90;;;2.20;;
10586;SDS011;5341;47.606;7.576;2022-09-03T09:33:29;4.40;;;2.38;;
10586;SDS011;5341;47.606;7.576;2022-09-03T09:35:58;5.82;;;2.65;;
10586;SDS011;5341;47.606;7.576;2022-09-03T09:38:28;4.40;;;2.45;;
10586;SDS011;5341;47.606;7.576;2022-09-03T09:41:06;4.30;;;2.70;;
10586;SDS011;5341;47.606;7.576;2022-09-03T09:43:37;3.03;;;2.22;;
10586;SDS011;5341;47.606;7.576;2022-09-03T09:46:05;5.35;;;2.40;;
10586;SDS011;5341;47.606;7.576;2022-09-03T09:48:36;5.55;;;2.42;;
10586;SDS011;5341;47.606;7.576;2022-09-03T09:51:11;3.88;;;2.33;;
10586;SDS011;5341;47.606;7.576;2022-09-03T09:53:43;4.63;;;2.28;;
10586;SDS011;5341;47.606;7.576;2022-09-03T09:56:19;5.07;;;2.03;;
10586;SDS011;5341;47.606;7.576;2022-09-03T09:58:49;3.22;;;2.28;;
10586;SDS011;5341;47.606;7.576;2022-09-03T10:01:27;2.50;;;1.95;;
10586;SDS011;5341;47.606;7.576;2022-09-03T10:03:56;2.40;;;2.20;;
10586;SDS011;5341;47.606;7.576;2022-09-03T10:06:26;3.25;;;2.10;;
10586;SDS011;5341;47.606;7.576;2022-09-03T10:09:13;3.38;;;2.53;;
10586;SDS011;5341;47.606;7.576;2022-09-03T10:11:43;3.90;;;2.30;;
10586;SDS011;5341;47.606;7.576;2022-09-03T10:14:17;3.90;;;2.40;;
10586;SDS011;5341;47.606;7.576;2022-09-03T10:16:53;3.30;;;2.20;;
10586;SDS011;5341;47.606;7.576;2022-09-03T10:19:28;5.07;;;2.50;;
10586;SDS011;5341;47.606;7.576;2022-09-03T10:22:04;4.28;;;2.13;;
10586;SDS011;5341;47.606;7.576;2022-09-03T10:24:41;3.13;;;2.03;;
10586;SDS011;5341;47.606;7.576;2022-09-03T10:27:18;2.42;;;1.83;;
10586;SDS011;5341;47.606;7.576;2022-09-03T10:29:49;2.20;;;1.73;;
10586;SDS011;5341;47.606;7.576;2022-09-03T10:32:29;3.13;;;1.85;;
10586;SDS011;5341;47.606;7.576;2022-09-03T10:35:10;3.28;;;2.00;;
10586;SDS011;5341;47.606;7.576;2022-09-03T10:37:59;3.33;;;2.10;;
10586;SDS011;5341;47.606;7.576;2022-09-03T10:40:37;2.72;;;1.95;;
10586;SDS011;5341;47.606;7.576;2022-09-03T10:43:22;3.20;;;2.10;;
10586;SDS011;5341;47.606;7.576;2022-09-03T10:46:08;3.83;;;2.00;;
10586;SDS011;5341;47.606;7.576;2022-09-03T10:48:40;2.58;;;2.20;;
10586;SDS011;5341;47.606;7.576;2022-09-03T10:51:21;4.15;;;2.47;;
10586;SDS011;5341;47.606;7.576;2022-09-03T10:54:05;3.78;;;2.15;;
10586;SDS011;5341;47.606;7.576;2022-09-03T10:56:50;2.60;;;1.98;;
10586;SDS011;5341;47.606;7.576;2022-09-03T10:59:31;3.13;;;2.20;;
10586;SDS011;5341;47.606;7.576;2022-09-03T11:02:22;2.38;;;2.10;;
10586;SDS011;5341;47.606;7.576;2022-09-03T11:05:00;4.30;;;2.25;;
10586;SDS011;5341;47.606;7.576;2022-09-03T11:07:34;3.22;;;1.90;;
10586;SDS011;5341;47.606;7.576;2022-09-03T11:10:09;5.88;;;2.33;;
10586;SDS011;5341;47.606;7.576;2022-09-03T11:12:43;2.35;;;1.75;;
10586;SDS011;5341;47.606;7.576;2022-09-03T11:15:15;2.65;;;2.00;;
10586;SDS011;5341;47.606;7.576;2022-09-03T11:17:51;2.63;;;1.92;;
10586;SDS011;5341;47.606;7.576;2022-09-03T11:20:25;2.65;;;1.90;;
10586;SDS011;5341;47.606;7.576;2022-09-03T11:22:56;3.35;;;1.90;;
10586;SDS011;5341;47.606;7.576;2022-09-03T11:25:29;2.58;;;1.75;;
10586;SDS011;5341;47.606;7.576;2022-09-03T11:28:02;3.78;;;1.80;;
10586;SDS011;5341;47.606;7.576;2022-09-03T11:30:46;3.58;;;1.90;;
10586;SDS011;5341;47.606;7.576;2022-09-03T11:33:22;2.40;;;2.00;;
10586;SDS011;5341;47.606;7.576;2022-09-03T11:35:54;2.70;;;1.77;;
10586;SDS011;5341;47.606;7.576;2022-09-03T11:38:25;3.03;;;1.70;;
10586;SDS011;5341;47.606;7.576;2022-09-03T11:40:57;2.03;;;1.70;;
10586;SDS011;5341;47.606;7.576;2022-09-03T11:43:29;2.53;;;1.90;;
10586;SDS011;5341;47.606;7.576;2022-09-03T11:46:01;1.80;;;1.70;;
10586;SDS011;5341;47.606;7.576;2022-09-03T11:48:38;2.83;;;1.92;;
10586;SDS011;5341;47.606;7.576;2022-09-03T11:51:19;2.72;;;1.77;;
10586;SDS011;5341;47.606;7.576;2022-09-03T11:53:58;3.30;;;2.08;;
10586;SDS011;5341;47.606;7.576;2022-09-03T11:56:27;3.92;;;1.98;;
10586;SDS011;5341;47.606;7.576;2022-09-03T11:59:01;2.00;;;1.80;;
10586;SDS011;5341;47.606;7.576;2022-09-03T12:01:32;2.85;;;2.20;;
10586;SDS011;5341;47.606;7.576;2022-09-03T12:04:05;2.47;;;1.70;;
10586;SDS011;5341;47.606;7.576;2022-09-03T12:06:41;1.90;;;1.80;;
10586;SDS011;5341;47.606;7.576;2022-09-03T12:12:34;2.90;;;1.70;;
10586;SDS011;5341;47.606;7.576;2022-09-03T12:15:22;4.00;;;2.00;;
10586;SDS011;5341;47.606;7.576;2022-09-03T12:18:02;3.05;;;1.92;;
10586;SDS011;5341;47.606;7.576;2022-09-03T12:20:47;2.63;;;1.80;;
10586;SDS011;5341;47.606;7.576;2022-09-03T12:23:26;3.10;;;1.67;;
10586;SDS011;5341;47.606;7.576;2022-09-03T12:25:55;3.70;;;2.00;;
10586;SDS011;5341;47.606;7.576;2022-09-03T12:28:27;1.73;;;1.63;;
10586;SDS011;5341;47.606;7.576;2022-09-03T12:31:04;2.33;;;1.73;;
10586;SDS011;5341;47.606;7.576;2022-09-03T12:33:34;1.90;;;1.70;;
10586;SDS011;5341;47.606;7.576;2022-09-03T12:36:08;4.00;;;1.60;;
10586;SDS011;5341;47.606;7.576;2022-09-03T12:38:35;1.67;;;1.58;;
10586;SDS011;5341;47.606;7.576;2022-09-03T12:41:03;2.47;;;1.70;;
10586;SDS011;5341;47.606;7.576;2022-09-03T12:43:30;2.30;;;1.88;;
10586;SDS011;5341;47.606;7.576;2022-09-03T12:45:59;2.33;;;1.80;;
10586;SDS011;5341;47.606;7.576;2022-09-03T12:48:26;2.13;;;1.77;;
10586;SDS011;5341;47.606;7.576;2022-09-03T12:51:00;2.60;;;1.67;;
10586;SDS011;5341;47.606;7.576;2022-09-03T12:53:30;2.05;;;1.85;;
10586;SDS011;5341;47.606;7.576;2022-09-03T12:55:59;2.10;;;1.60;;
10586;SDS011;5341;47.606;7.576;2022-09-03T12:58:30;2.00;;;1.80;;
10586;SDS011;5341;47.606;7.576;2022-09-03T13:01:03;2.28;;;1.65;;
10586;SDS011;5341;47.606;7.576;2022-09-03T13:03:40;2.10;;;1.60;;
10586;SDS011;5341;47.606;7.576;2022-09-03T13:06:14;2.47;;;1.80;;
10586;SDS011;5341;47.606;7.576;2022-09-03T13:08:48;2.03;;;1.80;;
10586;SDS011;5341;47.606;7.576;2022-09-03T13:11:19;4.35;;;1.60;;
10586;SDS011;5341;47.606;7.576;2022-09-03T13:13:53;1.75;;;1.50;;
10586;SDS011;5341;47.606;7.576;2022-09-03T13:16:35;2.05;;;1.63;;
10586;SDS011;5341;47.606;7.576;2022-09-03T13:19:24;2.30;;;1.80;;
10586;SDS011;5341;47.606;7.576;2022-09-03T13:22:01;4.53;;;2.00;;
10586;SDS011;5341;47.606;7.576;2022-09-03T13:24:42;3.42;;;2.17;;
10586;SDS011;5341;47.606;7.576;2022-09-03T13:27:24;2.15;;;1.90;;
10586;SDS011;5341;47.606;7.576;2022-09-03T13:30:03;2.17;;;1.88;;
10586;SDS011;5341;47.606;7.576;2022-09-03T13:32:41;3.17;;;2.15;;
10586;SDS011;5341;47.606;7.576;2022-09-03T13:35:17;2.60;;;1.98;;
10586;SDS011;5341;47.606;7.576;2022-09-03T13:37:54;2.63;;;1.90;;
10586;SDS011;5341;47.606;7.576;2022-09-03T13:40:34;2.25;;;1.70;;
10586;SDS011;5341;47.606;7.576;2022-09-03T13:43:17;1.80;;;1.60;;
10586;SDS011;5341;47.606;7.576;2022-09-03T13:45:54;2.22;;;1.65;;
10586;SDS011;5341;47.606;7.576;2022-09-03T13:48:25;2.42;;;1.80;;
10586;SDS011;5341;47.606;7.576;2022-09-03T13:51:14;1.80;;;1.70;;
10586;SDS011;5341;47.606;7.576;2022-09-03T13:53:48;2.53;;;1.70;;
10586;SDS011;5341;47.606;7.576;2022-09-03T13:56:45;2.10;;;1.90;;
10586;SDS011;5341;47.606;7.576;2022-09-03T13:59:19;2.05;;;1.80;;
10586;SDS011;5341;47.606;7.576;2022-09-03T14:02:15;2.10;;;1.73;;
10586;SDS011;5341;47.606;7.576;2022-09-03T14:05:00;2.60;;;1.80;;
10586;SDS011;5341;47.606;7.576;2022-09-03T14:07:37;3.08;;;1.90;;
10586;SDS011;5341;47.606;7.576;2022-09-03T14:10:15;2.83;;;1.70;;
10586;SDS011;5341;47.606;7.576;2022-09-03T14:12:49;1.90;;;1.80;;
10586;SDS011;5341;47.606;7.576;2022-09-03T14:15:33;2.05;;;1.85;;
10586;SDS011;5341;47.606;7.576;2022-09-03T14:18:09;2.45;;;1.90;;
10586;SDS011;5341;47.606;7.576;2022-09-03T14:20:44;3.38;;;1.80;;
10586;SDS011;5341;47.606;7.576;2022-09-03T14:23:23;2.13;;;1.80;;
10586;SDS011;5341;47.606;7.576;2022-09-03T14:25:59;3.03;;;1.77;;
10586;SDS011;5341;47.606;7.576;2022-09-03T14:28:32;3.70;;;2.00;;
10586;SDS011;5341;47.606;7.576;2022-09-03T14:31:05;2.75;;;1.50;;
10586;SDS011;5341;47.606;7.576;2022-09-03T14:33:42;2.10;;;1.90;;
10586;SDS011;5341;47.606;7.576;2022-09-03T14:36:23;4.03;;;1.60;;
10586;SDS011;5341;47.606;7.576;2022-09-03T14:39:02;2.20;;;2.00;;
10586;SDS011;5341;47.606;7.576;2022-09-03T14:44:51;2.28;;;2.00;;
10586;SDS011;5341;47.606;7.576;2022-09-03T14:47:37;2.17;;;1.90;;
10586;SDS011;5341;47.606;7.576;2022-09-03T14:50:21;3.22;;;1.90;;
10586;SDS011;5341;47.606;7.576;2022-09-03T14:53:13;2.35;;;2.00;;
10586;SDS011;5341;47.606;7.576;2022-09-03T14:56:02;2.35;;;2.00;;
10586;SDS011;5341;47.606;7.576;2022-09-03T14:58:43;2.30;;;2.10;;
10586;SDS011;5341;47.606;7.576;2022-09-03T15:01:28;2.00;;;1.80;;
10586;SDS011;5341;47.606;7.576;2022-09-03T15:04:11;2.30;;;2.10;;
10586;SDS011;5341;47.606;7.576;2022-09-03T15:07:01;2.28;;;2.05;;
10586;SDS011;5341;47.606;7.576;2022-09-03T15:09:44;2.15;;;1.75;;
10586;SDS011;5341;47.606;7.576;2022-09-03T15:12:20;2.47;;;1.92;;
10586;SDS011;5341;47.606;7.576;2022-09-03T15:14:55;2.70;;;1.90;;
10586;SDS011;5341;47.606;7.576;2022-09-03T15:17:37;2.35;;;1.80;;
10586;SDS011;5341;47.606;7.576;2022-09-03T15:20:20;2.10;;;1.80;;
10586;SDS011;5341;47.606;7.576;2022-09-03T15:23:01;2.17;;;1.98;;
10586;SDS011;5341;47.606;7.576;2022-09-03T15:26:09;2.22;;;2.03;;
10586;SDS011;5341;47.606;7.576;2022-09-03T15:29:01;2.97;;;1.85;;
10586;SDS011;5341;47.606;7.576;2022-09-03T15:31:41;2.13;;;1.83;;
10586;SDS011;5341;47.606;7.576;2022-09-03T15:34:18;1.88;;;1.70;;
10586;SDS011;5341;47.606;7.576;2022-09-03T15:37:09;2.42;;;2.10;;
10586;SDS011;5341;47.606;7.576;2022-09-03T15:39:43;6.70;;;2.22;;
10586;SDS011;5341;47.606;7.576;2022-09-03T15:42:14;2.92;;;2.00;;
10586;SDS011;5341;47.606;7.576;2022-09-03T15:44:52;2.40;;;2.13;;
10586;SDS011;5341;47.606;7.576;2022-09-03T15:47:30;2.40;;;2.20;;
10586;SDS011;5341;47.606;7.576;2022-09-03T15:50:09;3.60;;;2.08;;